Time;durP1;ratioP1;P1;durP2;ratioP2;P2;SDS_P1;SDS_P2;PMS_P1;PMS_P2;Temp;Humidity;BMP_temperature;BMP_pressure;BME280_temperature;BME280_humidity;BME280_pressure;Samples;Min_cycle;Max_cycle;Signal;HPM_P1;HPM_P2
2022/04/07 00:01:57;;;;;;;3.60;2.87;;;9.50;99.90;;;;;;5021234;28;20196;-76
2022/04/07 00:04:23;;;;;;;4.53;3.27;;;9.50;99.90;;;;;;5005240;28;20594;-76
2022/04/07 00:06:49;;;;;;;4.70;3.20;;;9.50;99.90;;;;;;5037522;28;20183;-76
2022/04/07 00:09:14;;;;;;;3.97;3.00;;;9.40;99.90;;;;;;5021098;28;20762;-76
2022/04/07 00:11:40;;;;;;;4.53;3.10;;;9.50;99.90;;;;;;5037455;28;20274;-76
2022/04/07 00:14:06;;;;;;;3.27;2.80;;;9.50;99.90;;;;;;5004822;28;20230;-76
2022/04/07 00:16:32;;;;;;;4.47;3.50;;;9.50;99.90;;;;;;5020918;28;20179;-76
2022/04/07 00:18:57;;;;;;;3.77;3.33;;;9.50;99.90;;;;;;5004538;28;20283;-76
2022/04/07 00:21:35;;;;;;;4.30;3.13;;;9.50;99.90;;;;;;5021096;28;20182;-76
2022/04/07 00:24:01;;;;;;;4.80;3.60;;;9.50;99.90;;;;;;5022342;28;20176;-76
2022/04/07 00:26:27;;;;;;;3.20;2.90;;;9.50;99.90;;;;;;5020890;28;20184;-76
2022/04/07 00:28:53;;;;;;;3.70;3.20;;;9.50;99.90;;;;;;5020815;28;20196;-76
2022/04/07 00:31:18;;;;;;;4.23;3.10;;;9.50;99.90;;;;;;5004695;28;20268;-76
2022/04/07 00:33:44;;;;;;;3.83;3.30;;;9.50;99.90;;;;;;5020716;28;20375;-76
2022/04/07 00:36:09;;;;;;;3.10;2.77;;;9.50;99.90;;;;;;5004198;28;20176;-76
2022/04/07 00:38:35;;;;;;;3.70;3.27;;;9.50;99.90;;;;;;5004127;28;20201;-76
2022/04/07 00:41:01;;;;;;;4.93;3.17;;;9.50;99.90;;;;;;5004101;28;20283;-76
2022/04/07 00:43:32;;;;;;;5.50;3.10;;;9.50;99.90;;;;;;5020486;28;20214;-76
2022/04/07 00:45:58;;;;;;;3.20;2.77;;;9.60;99.90;;;;;;5036719;28;20173;-76
2022/04/07 00:48:24;;;;;;;4.03;2.77;;;9.50;99.90;;;;;;5054385;28;20192;-76
2022/04/07 00:50:50;;;;;;;3.90;3.13;;;9.50;99.90;;;;;;5036686;28;20204;-76
2022/04/07 00:53:17;;;;;;;4.53;2.80;;;9.50;99.90;;;;;;5020354;28;20238;-76
2022/04/07 00:55:42;;;;;;;4.80;3.27;;;9.50;99.90;;;;;;5020205;28;20232;-76
2022/04/07 00:58:09;;;;;;;4.53;3.20;;;9.50;99.90;;;;;;5020355;28;20291;-77
2022/04/07 01:00:34;;;;;;;3.77;3.37;;;9.40;99.90;;;;;;5019456;28;20179;-76
2022/04/07 01:03:00;;;;;;;4.03;3.03;;;9.30;99.90;;;;;;5019892;28;20179;-76
2022/04/07 01:05:26;;;;;;;4.13;3.73;;;9.30;99.90;;;;;;5054823;28;20633;-76
2022/04/07 01:07:52;;;;;;;4.77;3.50;;;9.20;99.90;;;;;;5019789;28;20198;-76
2022/04/07 01:10:19;;;;;;;4.33;3.30;;;9.20;99.90;;;;;;5019790;28;20209;-76
2022/04/07 01:12:45;;;;;;;5.47;3.43;;;9.10;99.90;;;;;;5036005;28;20180;-76
2022/04/07 01:15:11;;;;;;;5.07;3.30;;;9.10;99.90;;;;;;5036560;28;20184;-76
2022/04/07 01:17:38;;;;;;;6.03;3.20;;;9.20;99.90;;;;;;5036234;28;20225;-76
2022/04/07 01:20:05;;;;;;;4.43;3.53;;;9.20;99.90;;;;;;5036294;28;20189;-76
2022/04/07 01:22:39;;;;;;;4.53;3.30;;;9.20;99.90;;;;;;5035848;28;20181;-76
2022/04/07 01:25:05;;;;;;;3.37;2.93;;;9.20;99.90;;;;;;5036436;28;20175;-76
2022/04/07 01:27:30;;;;;;;5.00;3.63;;;9.20;99.90;;;;;;5003379;28;20207;-76
2022/04/07 01:29:57;;;;;;;3.60;3.10;;;9.20;99.90;;;;;;5003341;28;20211;-76
2022/04/07 01:32:43;;;;;;;3.77;3.40;;;9.20;99.90;;;;;;5019499;28;20698;-76
2022/04/07 01:35:10;;;;;;;4.23;3.30;;;9.20;99.90;;;;;;5035807;28;20179;-76
2022/04/07 01:37:37;;;;;;;4.00;3.30;;;9.20;99.90;;;;;;5003356;28;20217;-76
2022/04/07 01:40:04;;;;;;;4.00;3.60;;;9.20;99.90;;;;;;5019210;28;20275;-76
2022/04/07 01:42:33;;;;;;;4.20;3.33;;;9.10;99.90;;;;;;5003246;28;20194;-76
2022/04/07 01:45:01;;;;;;;3.73;3.30;;;9.10;99.90;;;;;;5019774;28;20628;-76
2022/04/07 01:47:27;;;;;;;5.27;3.60;;;9.00;99.90;;;;;;5002755;28;20208;-76
2022/04/07 01:50:07;;;;;;;4.43;3.50;;;9.00;99.90;;;;;;5035985;28;20186;-76
2022/04/07 01:52:38;;;;;;;4.03;3.37;;;8.90;99.90;;;;;;5053278;28;20646;-76
2022/04/07 01:55:04;;;;;;;4.73;3.60;;;8.80;99.90;;;;;;5035745;28;20172;-76
2022/04/07 01:57:31;;;;;;;4.10;3.70;;;8.80;99.90;;;;;;5035502;28;20229;-76
2022/04/07 01:59:58;;;;;;;4.27;3.67;;;8.80;99.90;;;;;;5018848;28;20189;-76
2022/04/07 02:02:24;;;;;;;6.23;3.97;;;8.80;99.90;;;;;;5002372;28;20303;-76
2022/04/07 02:04:57;;;;;;;4.53;3.63;;;8.80;99.90;;;;;;5019278;28;20281;-76
2022/04/07 02:07:31;;;;;;;4.53;3.97;;;8.90;99.90;;;;;;5002824;28;20229;-76
2022/04/07 02:09:57;;;;;;;4.50;3.60;;;8.80;99.90;;;;;;5018672;28;20598;-76
2022/04/07 02:12:23;;;;;;;3.90;3.50;;;8.80;99.90;;;;;;5035397;28;20178;-76
2022/04/07 02:14:49;;;;;;;4.97;3.50;;;8.80;99.90;;;;;;5035259;28;20172;-76
2022/04/07 02:17:20;;;;;;;4.60;3.60;;;8.80;99.90;;;;;;5035123;28;20671;-76
2022/04/07 02:20:08;;;;;;;4.60;3.60;;;8.80;99.90;;;;;;5035343;28;20178;-76
2022/04/07 02:22:33;;;;;;;4.23;3.23;;;8.80;99.90;;;;;;5034725;28;20178;-76
2022/04/07 02:24:59;;;;;;;3.70;3.30;;;8.80;99.90;;;;;;5002127;28;20194;-76
2022/04/07 02:27:25;;;;;;;3.87;3.43;;;8.80;99.90;;;;;;5018474;28;20278;-76
2022/04/07 02:29:51;;;;;;;5.03;3.17;;;8.70;99.90;;;;;;5034875;28;20237;-76
2022/04/07 02:32:17;;;;;;;4.73;3.33;;;8.80;99.90;;;;;;5034837;28;20167;-76
2022/04/07 02:34:43;;;;;;;4.33;3.33;;;8.80;99.90;;;;;;5034787;28;20218;-76
2022/04/07 02:37:09;;;;;;;5.20;3.27;;;8.80;99.90;;;;;;5034904;28;20207;-76
2022/04/07 02:39:35;;;;;;;4.13;2.90;;;8.80;99.90;;;;;;5034795;28;20218;-76
2022/04/07 02:42:00;;;;;;;4.33;3.50;;;8.90;99.90;;;;;;5018203;28;20213;-76
2022/04/07 02:44:26;;;;;;;3.20;2.90;;;8.90;99.90;;;;;;5034809;28;20636;-76
2022/04/07 02:46:52;;;;;;;4.93;3.37;;;8.90;99.90;;;;;;5001366;28;20180;-77
2022/04/07 02:49:17;;;;;;;4.97;3.50;;;8.90;99.90;;;;;;5001855;28;20200;-76
2022/04/07 02:51:44;;;;;;;3.90;2.87;;;8.90;99.90;;;;;;5018024;28;20179;-76
2022/04/07 02:54:10;;;;;;;3.23;2.87;;;9.00;99.90;;;;;;5017843;28;20183;-76
2022/04/07 02:56:35;;;;;;;5.83;3.10;;;9.00;99.90;;;;;;5034592;28;20219;-76
2022/04/07 02:59:01;;;;;;;4.23;2.90;;;9.00;99.90;;;;;;5034423;28;20166;-76
2022/04/07 03:01:27;;;;;;;3.60;2.90;;;9.00;99.90;;;;;;5018014;28;20183;-76
2022/04/07 03:03:55;;;;;;;2.97;2.60;;;9.00;99.90;;;;;;5034396;28;20715;-76
2022/04/07 03:06:21;;;;;;;3.47;2.80;;;9.00;99.90;;;;;;5034337;28;20228;-76
2022/04/07 03:08:47;;;;;;;3.23;2.57;;;9.00;99.90;;;;;;5034065;28;20235;-76
2022/04/07 03:11:13;;;;;;;3.20;2.33;;;9.00;99.90;;;;;;5017824;28;20213;-76
2022/04/07 03:13:39;;;;;;;2.60;2.23;;;9.00;99.90;;;;;;5017569;28;20175;-76
2022/04/07 03:16:06;;;;;;;2.50;2.30;;;9.00;99.90;;;;;;5034194;28;20203;-76
2022/04/07 03:18:33;;;;;;;3.03;2.70;;;9.00;99.90;;;;;;5034184;28;20215;-76
2022/04/07 03:20:59;;;;;;;3.60;2.30;;;9.00;99.90;;;;;;5051996;28;20177;-76
2022/04/07 03:23:24;;;;;;;3.53;2.00;;;9.00;99.90;;;;;;5000722;28;20185;-76
2022/04/07 03:25:50;;;;;;;3.03;2.40;;;9.00;99.90;;;;;;5034628;28;20263;-76
2022/04/07 03:28:16;;;;;;;2.37;1.90;;;8.90;99.90;;;;;;5001481;28;20294;-76
2022/04/07 03:30:42;;;;;;;3.50;2.23;;;8.90;99.90;;;;;;5017828;28;20198;-76
2022/04/07 03:33:07;;;;;;;3.30;1.83;;;8.90;99.90;;;;;;5033973;28;20174;-76
2022/04/07 03:35:33;;;;;;;2.00;1.80;;;8.90;99.90;;;;;;5001289;28;20174;-76
2022/04/07 03:37:59;;;;;;;3.30;2.30;;;8.90;99.90;;;;;;5017353;28;20612;-76
2022/04/07 03:40:26;;;;;;;2.27;2.00;;;8.80;99.90;;;;;;5017759;28;20185;-76
2022/04/07 03:42:52;;;;;;;3.17;2.13;;;8.80;99.90;;;;;;5033703;28;20229;-76
2022/04/07 03:45:18;;;;;;;2.50;2.30;;;8.70;99.90;;;;;;5034042;28;20233;-77
2022/04/07 03:47:44;;;;;;;2.63;2.33;;;8.60;99.90;;;;;;5033702;28;20212;-76
2022/04/07 03:50:10;;;;;;;2.60;2.37;;;8.60;99.90;;;;;;5017473;28;20678;-76
2022/04/07 03:52:36;;;;;;;2.30;2.10;;;8.60;99.90;;;;;;5017213;28;20187;-76
2022/04/07 03:55:03;;;;;;;2.93;2.27;;;8.60;99.90;;;;;;5001625;28;20265;-76
2022/04/07 03:57:29;;;;;;;3.80;2.30;;;8.60;99.90;;;;;;5017379;28;20194;-76
2022/04/07 03:59:55;;;;;;;2.37;2.17;;;8.50;99.90;;;;;;5001142;28;20229;-76
2022/04/07 04:02:20;;;;;;;2.43;2.10;;;8.40;99.90;;;;;;5033598;28;20178;-76
2022/04/07 04:04:46;;;;;;;2.90;2.20;;;8.30;99.90;;;;;;5017529;28;20272;-76
2022/04/07 04:07:11;;;;;;;3.27;2.30;;;8.20;99.90;;;;;;5017566;28;20202;-76
2022/04/07 04:09:37;;;;;;;2.47;2.27;;;8.20;99.90;;;;;;5033667;28;20213;-76
2022/04/07 04:12:03;;;;;;;2.90;2.60;;;8.10;99.90;;;;;;5017317;28;20176;-76
2022/04/07 04:14:29;;;;;;;2.80;2.60;;;8.20;99.90;;;;;;5017152;28;20202;-76
2022/04/07 04:16:55;;;;;;;2.70;2.50;;;8.20;99.90;;;;;;5017159;28;20204;-76
2022/04/07 04:19:20;;;;;;;2.60;2.40;;;8.30;99.90;;;;;;5033812;28;20177;-76
2022/04/07 04:21:46;;;;;;;2.60;2.40;;;8.20;99.90;;;;;;5033557;28;20552;-76
2022/04/07 04:24:12;;;;;;;3.47;2.43;;;8.30;99.90;;;;;;5001193;28;20181;-76
2022/04/07 04:26:38;;;;;;;2.70;2.50;;;8.30;99.90;;;;;;5051345;28;20166;-76
2022/04/07 04:29:04;;;;;;;2.60;2.40;;;8.30;99.90;;;;;;5017093;28;20660;-76
2022/04/07 04:31:30;;;;;;;2.40;2.20;;;8.30;99.90;;;;;;5001418;28;20182;-76
2022/04/07 04:33:55;;;;;;;2.60;2.40;;;8.30;99.90;;;;;;5051239;28;20537;-77
2022/04/07 04:36:22;;;;;;;2.60;2.40;;;8.30;99.90;;;;;;5020110;28;20181;-77
2022/04/07 04:38:48;;;;;;;2.87;2.57;;;8.30;99.90;;;;;;5020498;28;20246;-77
2022/04/07 04:41:14;;;;;;;3.00;2.70;;;8.30;99.90;;;;;;5036858;28;20180;-77
2022/04/07 04:43:40;;;;;;;3.03;2.70;;;8.20;99.90;;;;;;5004121;28;20264;-77
2022/04/07 04:46:07;;;;;;;3.60;3.13;;;8.30;99.90;;;;;;5037018;28;20268;-77
2022/04/07 04:48:33;;;;;;;3.00;2.70;;;8.20;99.90;;;;;;5020271;28;20202;-77
2022/04/07 04:50:59;;;;;;;4.43;2.90;;;8.20;99.90;;;;;;5036632;28;20209;-77
2022/04/07 04:53:24;;;;;;;3.83;2.73;;;8.20;99.90;;;;;;5020357;28;20174;-77
2022/04/07 04:55:50;;;;;;;2.80;2.40;;;8.20;99.90;;;;;;5020397;28;20174;-77
2022/04/07 04:58:16;;;;;;;3.03;2.60;;;8.30;99.90;;;;;;5020150;28;20615;-77
2022/04/07 05:00:42;;;;;;;3.87;2.80;;;8.20;99.90;;;;;;5036577;28;20185;-77
2022/04/07 05:03:08;;;;;;;3.13;2.83;;;8.20;99.90;;;;;;5036389;28;20177;-77
2022/04/07 05:05:34;;;;;;;3.90;2.63;;;8.20;99.90;;;;;;5003625;28;20191;-77
2022/04/07 05:08:00;;;;;;;3.27;2.97;;;8.20;99.90;;;;;;5020155;28;20569;-77
2022/04/07 05:10:25;;;;;;;8.17;2.80;;;8.20;99.90;;;;;;5019906;28;20205;-77
2022/04/07 05:12:52;;;;;;;2.93;2.63;;;8.20;99.90;;;;;;5036237;28;20176;-77
2022/04/07 05:15:17;;;;;;;2.80;2.60;;;8.20;99.90;;;;;;5019836;28;20661;-77
2022/04/07 05:17:50;;;;;;;2.43;2.10;;;8.20;99.90;;;;;;5019882;28;20344;-77
2022/04/07 05:20:16;;;;;;;3.10;2.23;;;8.20;99.90;;;;;;5036180;28;20184;-77
2022/04/07 05:22:42;;;;;;;2.93;2.37;;;8.20;99.90;;;;;;5036345;28;20181;-78
2022/04/07 05:25:08;;;;;;;2.20;2.00;;;8.20;99.90;;;;;;5020150;28;20185;-77
2022/04/07 05:27:36;;;;;;;2.30;2.10;;;8.30;99.90;;;;;;5019614;28;20204;-77
2022/04/07 05:30:15;;;;;;;2.50;2.30;;;8.20;99.90;;;;;;5035989;28;20554;-77
2022/04/07 05:32:43;;;;;;;2.33;2.10;;;8.20;99.90;;;;;;5003929;28;20184;-77
2022/04/07 05:35:09;;;;;;;2.23;2.03;;;8.20;99.90;;;;;;5019639;28;20267;-77
2022/04/07 05:37:35;;;;;;;3.20;2.60;;;8.20;99.90;;;;;;5035874;28;20190;-77
2022/04/07 05:40:01;;;;;;;3.20;2.03;;;8.20;99.90;;;;;;5019498;28;20184;-77
2022/04/07 05:42:27;;;;;;;2.47;2.23;;;8.30;99.90;;;;;;5035619;28;20178;-77
2022/04/07 05:44:52;;;;;;;3.03;2.30;;;8.30;99.90;;;;;;5003026;28;20189;-76
2022/04/07 05:47:37;;;;;;;3.00;2.70;;;8.30;99.90;;;;;;5002456;28;20197;-77
2022/04/07 05:50:04;;;;;;;2.70;2.40;;;8.30;99.90;;;;;;5036442;28;20236;-76
2022/04/07 05:52:29;;;;;;;3.30;2.50;;;8.40;99.90;;;;;;5019522;28;20580;-76
2022/04/07 05:54:55;;;;;;;2.90;2.50;;;8.30;99.90;;;;;;5002723;28;20687;-76
2022/04/07 05:57:22;;;;;;;2.40;2.20;;;8.40;99.90;;;;;;5002675;28;20229;-76
2022/04/07 05:59:47;;;;;;;2.60;2.40;;;8.40;99.90;;;;;;5019127;28;20185;-77
2022/04/07 06:02:13;;;;;;;2.87;2.23;;;8.40;99.90;;;;;;5035496;28;20179;-76
2022/04/07 06:04:40;;;;;;;2.50;2.07;;;8.40;99.90;;;;;;5002666;28;20178;-76
2022/04/07 06:07:06;;;;;;;2.73;1.90;;;8.50;99.90;;;;;;5003029;28;20195;-77
2022/04/07 06:09:34;;;;;;;2.13;1.93;;;8.60;99.90;;;;;;5018210;28;20213;-76
2022/04/07 06:12:00;;;;;;;2.40;1.70;;;8.60;99.90;;;;;;5035031;28;20530;-76
2022/04/07 06:14:26;;;;;;;2.90;1.80;;;8.70;99.90;;;;;;5018746;28;20311;-76
2022/04/07 06:16:51;;;;;;;2.10;1.90;;;8.70;99.90;;;;;;5018466;28;20181;-76
2022/04/07 06:19:17;;;;;;;3.07;1.80;;;8.60;99.90;;;;;;5035356;28;20208;-76
2022/04/07 06:21:43;;;;;;;1.70;1.60;;;8.70;99.90;;;;;;5002320;28;20186;-76
2022/04/07 06:24:09;;;;;;;1.80;1.70;;;8.80;99.90;;;;;;5002246;28;20184;-76
2022/04/07 06:26:34;;;;;;;1.70;1.60;;;8.80;99.90;;;;;;5002164;28;20185;-76
2022/04/07 06:29:00;;;;;;;2.57;1.70;;;8.80;99.90;;;;;;5018297;28;20475;-76
2022/04/07 06:31:26;;;;;;;3.17;2.13;;;8.80;99.90;;;;;;5018291;28;20175;-76
2022/04/07 06:33:51;;;;;;;1.93;1.60;;;8.80;99.90;;;;;;5034924;28;20180;-76
2022/04/07 06:36:17;;;;;;;1.90;1.73;;;8.80;99.90;;;;;;5002273;28;20171;-76
2022/04/07 06:38:43;;;;;;;1.83;1.67;;;8.80;99.90;;;;;;5034860;28;20216;-76
2022/04/07 06:41:08;;;;;;;2.07;1.47;;;8.90;99.90;;;;;;5001894;28;20555;-76
2022/04/07 06:43:34;;;;;;;1.50;1.40;;;8.90;99.90;;;;;;5018009;28;20174;-76
2022/04/07 06:45:59;;;;;;;2.10;1.50;;;8.90;99.90;;;;;;5002088;28;20296;-76
2022/04/07 06:48:25;;;;;;;1.40;1.30;;;8.90;99.90;;;;;;5001913;28;20297;-76
2022/04/07 06:50:51;;;;;;;2.10;1.30;;;9.00;99.90;;;;;;5001809;28;20206;-77
2022/04/07 06:53:17;;;;;;;1.30;1.10;;;9.10;99.90;;;;;;5001587;28;20191;-77
2022/04/07 06:55:43;;;;;;;1.30;1.20;;;9.10;99.90;;;;;;5001837;28;20187;-77
2022/04/07 06:58:10;;;;;;;2.33;1.30;;;9.10;99.90;;;;;;5001240;28;20294;-77
2022/04/07 07:00:42;;;;;;;1.80;1.27;;;9.20;99.90;;;;;;5018254;28;20184;-82
2022/04/07 07:03:08;;;;;;;1.63;1.20;;;9.40;99.90;;;;;;5052360;28;20192;-77
2022/04/07 07:05:35;;;;;;;1.53;1.07;;;9.40;99.90;;;;;;5001589;28;20183;-77
2022/04/07 07:08:19;;;;;;;1.20;1.10;;;9.50;99.90;;;;;;5034215;28;20204;-77
2022/04/07 07:10:46;;;;;;;1.20;1.10;;;9.50;99.90;;;;;;5017949;28;20207;-77
2022/04/07 07:13:13;;;;;;;1.50;1.10;;;9.50;99.90;;;;;;5018407;28;20187;-77
2022/04/07 07:15:40;;;;;;;1.57;0.90;;;9.50;99.90;;;;;;5034477;28;20185;-78
2022/04/07 07:18:06;;;;;;;0.80;0.80;;;9.50;99.90;;;;;;5034719;28;20215;-79
2022/04/07 07:20:32;;;;;;;1.87;0.90;;;9.40;99.90;;;;;;5035018;28;20179;-79
2022/04/07 07:22:58;;;;;;;0.73;0.70;;;9.40;99.90;;;;;;5001219;28;20186;-78
2022/04/07 07:25:23;;;;;;;1.17;0.90;;;9.40;99.90;;;;;;5017880;28;20260;-81
2022/04/07 07:27:49;;;;;;;0.93;0.80;;;9.30;99.90;;;;;;5001875;28;20204;-76
2022/04/07 07:30:16;;;;;;;1.57;0.90;;;9.30;99.90;;;;;;5051880;28;20658;-76
2022/04/07 07:32:46;;;;;;;1.07;0.97;;;9.30;99.90;;;;;;5033943;28;20266;-77
2022/04/07 07:35:13;;;;;;;1.37;0.80;;;9.30;99.90;;;;;;5034051;28;20183;-76
2022/04/07 07:37:50;;;;;;;1.67;1.00;;;9.30;99.90;;;;;;5018045;28;20292;-79
2022/04/07 07:40:17;;;;;;;2.53;0.90;;;9.40;99.90;;;;;;5034496;28;20177;-77
2022/04/07 07:42:43;;;;;;;1.13;0.90;;;9.40;99.90;;;;;;5017772;28;20187;-77
2022/04/07 07:45:09;;;;;;;0.90;0.90;;;9.50;99.90;;;;;;5017387;28;20539;-75
2022/04/07 07:47:35;;;;;;;1.40;1.00;;;9.50;99.90;;;;;;5017336;28;20196;-76
2022/04/07 07:50:02;;;;;;;1.60;1.50;;;9.40;99.90;;;;;;5017350;28;20211;-77
2022/04/07 07:52:27;;;;;;;1.03;0.90;;;9.40;99.90;;;;;;5033877;28;20176;-77
2022/04/07 07:54:53;;;;;;;1.80;0.97;;;9.30;99.90;;;;;;5000867;28;20176;-76
2022/04/07 07:57:19;;;;;;;1.27;1.07;;;9.10;99.90;;;;;;5001147;28;20194;-77
2022/04/07 07:59:45;;;;;;;1.00;0.90;;;9.00;99.90;;;;;;5034107;28;20179;-78
2022/04/07 08:02:10;;;;;;;1.60;1.20;;;8.90;99.90;;;;;;5017117;28;20182;-77
2022/04/07 08:04:36;;;;;;;1.00;0.90;;;8.90;99.90;;;;;;5017305;28;20178;-78
2022/04/07 08:07:02;;;;;;;1.63;0.90;;;8.80;99.90;;;;;;5001131;28;20200;-77
2022/04/07 08:09:28;;;;;;;2.00;0.80;;;8.80;99.90;;;;;;5019235;28;20284;-76
2022/04/07 08:11:54;;;;;;;0.80;0.80;;;8.70;99.90;;;;;;5021150;28;20653;-77
2022/04/07 08:14:19;;;;;;;1.33;0.93;;;8.70;99.90;;;;;;5021096;28;20174;-77
2022/04/07 08:16:45;;;;;;;1.00;0.80;;;8.70;99.90;;;;;;5004579;28;20178;-77
2022/04/07 08:19:11;;;;;;;1.03;0.90;;;8.80;99.90;;;;;;5021030;28;20178;-77
2022/04/07 08:21:37;;;;;;;1.37;0.90;;;8.80;99.90;;;;;;5037526;28;20258;-77
2022/04/07 08:24:06;;;;;;;1.73;1.00;;;8.80;99.90;;;;;;5020973;28;20307;-77
2022/04/07 08:26:31;;;;;;;1.47;0.80;;;8.80;99.90;;;;;;5021268;28;20193;-77
2022/04/07 08:28:57;;;;;;;1.13;0.77;;;8.70;99.90;;;;;;5004439;28;20198;-77
2022/04/07 08:31:23;;;;;;;0.90;0.90;;;8.70;99.90;;;;;;5020685;28;20296;-77
2022/04/07 08:33:49;;;;;;;0.80;0.80;;;8.70;99.90;;;;;;5020652;28;20170;-77
2022/04/07 08:36:15;;;;;;;1.70;1.17;;;8.70;99.90;;;;;;5004420;28;20176;-77
2022/04/07 08:38:40;;;;;;;2.33;0.83;;;8.70;99.90;;;;;;5037102;28;20228;-76
2022/04/07 08:41:09;;;;;;;0.80;0.80;;;8.70;99.90;;;;;;5004313;28;20183;-76
2022/04/07 08:43:38;;;;;;;0.87;0.87;;;8.80;99.90;;;;;;5020628;28;20185;-76
2022/04/07 08:46:07;;;;;;;0.70;0.70;;;8.70;99.90;;;;;;5037591;28;20174;-77
2022/04/07 08:48:36;;;;;;;0.60;0.60;;;8.80;99.90;;;;;;5020332;28;20202;-77
2022/04/07 08:51:02;;;;;;;0.77;0.77;;;8.80;99.90;;;;;;5004345;28;20279;-76
2022/04/07 08:53:28;;;;;;;1.77;0.70;;;8.90;99.90;;;;;;5036700;28;20305;-77
2022/04/07 08:55:53;;;;;;;1.20;1.10;;;9.00;99.90;;;;;;5020465;28;20679;-76
2022/04/07 08:58:19;;;;;;;0.70;0.70;;;9.00;99.90;;;;;;5004054;28;20284;-78
2022/04/07 09:00:45;;;;;;;1.03;0.80;;;9.00;99.90;;;;;;5003889;28;20264;-76
2022/04/07 09:03:10;;;;;;;0.70;0.70;;;9.00;99.90;;;;;;5003763;28;20657;-77
2022/04/07 09:05:57;;;;;;;0.77;0.70;;;9.00;99.90;;;;;;5020195;28;20264;-77
2022/04/07 09:08:37;;;;;;;1.50;0.80;;;9.00;99.90;;;;;;5036398;28;20197;-77
2022/04/07 09:11:06;;;;;;;1.57;0.60;;;9.00;99.90;;;;;;5019834;28;20688;-77
2022/04/07 09:13:39;;;;;;;0.53;0.53;;;9.00;99.90;;;;;;5036530;28;20224;-77
2022/04/07 09:16:07;;;;;;;0.60;0.60;;;8.90;99.90;;;;;;5036565;28;20552;-77
2022/04/07 09:18:35;;;;;;;0.67;0.67;;;8.90;99.90;;;;;;5036365;28;20291;-77
2022/04/07 09:21:01;;;;;;;0.83;0.50;;;8.90;99.90;;;;;;5035832;28;20170;-77
2022/04/07 09:23:30;;;;;;;1.07;0.80;;;9.00;99.90;;;;;;5036292;28;20175;-77
2022/04/07 09:25:57;;;;;;;0.60;0.57;;;9.00;99.90;;;;;;5036248;28;20201;-77
2022/04/07 09:28:30;;;;;;;0.67;0.67;;;9.00;99.90;;;;;;5003287;28;20334;-77
2022/04/07 09:30:57;;;;;;;0.80;0.70;;;9.00;99.90;;;;;;5036133;28;20202;-76
2022/04/07 09:33:25;;;;;;;0.60;0.60;;;9.10;99.90;;;;;;5019696;28;20258;-77
2022/04/07 09:36:03;;;;;;;0.50;0.50;;;9.10;99.90;;;;;;5035974;28;20169;-76
2022/04/07 09:38:31;;;;;;;0.60;0.60;;;9.20;99.90;;;;;;5019405;28;20193;-77
2022/04/07 09:41:13;;;;;;;0.60;0.60;;;9.20;99.90;;;;;;5003350;28;20205;-78
2022/04/07 09:43:43;;;;;;;0.60;0.60;;;9.30;99.90;;;;;;5035790;28;20641;-77
2022/04/07 09:46:11;;;;;;;2.00;0.63;;;9.30;99.90;;;;;;5035706;28;20630;-78
2022/04/07 09:48:37;;;;;;;0.70;0.70;;;9.30;99.90;;;;;;5053474;28;20194;-76
2022/04/07 09:51:08;;;;;;;0.70;0.70;;;9.40;99.90;;;;;;5002991;28;20198;-76
2022/04/07 09:53:39;;;;;;;1.13;0.70;;;9.40;99.90;;;;;;5035604;28;20181;-76
2022/04/07 09:56:06;;;;;;;0.60;0.60;;;9.40;99.90;;;;;;5019348;28;20651;-76
2022/04/07 09:58:34;;;;;;;1.97;0.60;;;9.50;99.90;;;;;;5035732;28;20190;-76
2022/04/07 10:01:04;;;;;;;0.70;0.60;;;9.50;99.90;;;;;;5035939;28;20642;-76
2022/04/07 10:03:31;;;;;;;0.70;0.70;;;9.60;99.90;;;;;;5035343;28;20173;-76
2022/04/07 10:05:58;;;;;;;1.13;0.70;;;9.60;99.90;;;;;;5018993;28;20227;-75
2022/04/07 10:08:25;;;;;;;1.17;0.70;;;9.60;99.90;;;;;;5035244;28;20556;-76
2022/04/07 10:10:52;;;;;;;0.77;0.57;;;9.60;99.90;;;;;;5035407;28;20210;-75
2022/04/07 10:13:18;;;;;;;0.47;0.47;;;9.70;99.90;;;;;;5019065;28;20181;-76
2022/04/07 10:15:45;;;;;;;0.80;0.60;;;9.60;99.90;;;;;;5002591;28;20199;-75
2022/04/07 10:18:37;;;;;;;0.60;0.60;;;9.70;99.90;;;;;;5002380;28;20265;-76
2022/04/07 10:21:04;;;;;;;1.23;0.80;;;9.70;99.90;;;;;;4994918;28;20650;-76
2022/04/07 10:24:02;;;;;;;2.27;1.10;;;9.60;99.90;;;;;;5035068;28;20168;-76
2022/04/07 10:26:29;;;;;;;0.90;0.70;;;9.70;99.90;;;;;;5034917;28;20181;-76
2022/04/07 10:28:55;;;;;;;0.60;0.60;;;9.80;99.90;;;;;;5034929;28;20196;-77
2022/04/07 10:31:22;;;;;;;0.70;0.70;;;9.70;99.90;;;;;;5076621;22;20228;-77
2022/04/07 10:33:48;;;;;;;0.63;0.63;;;9.80;99.90;;;;;;5053399;28;20164;-76
2022/04/07 10:36:23;;;;;;;3.00;0.80;;;9.90;99.90;;;;;;5019722;28;20177;-76
2022/04/07 10:38:53;;;;;;;0.57;0.57;;;10.00;99.90;;;;;;5020011;28;20180;-79
2022/04/07 10:41:37;;;;;;;1.00;0.93;;;10.10;99.90;;;;;;5037267;28;20258;-77
2022/04/07 10:44:24;;;;;;;0.70;0.70;;;10.10;99.90;;;;;;5037140;28;20184;-77
2022/04/07 10:47:04;;;;;;;0.63;0.63;;;10.20;99.90;;;;;;5020595;28;20189;-77
2022/04/07 10:49:31;;;;;;;1.87;0.70;;;10.20;99.90;;;;;;5036840;28;20280;-77
2022/04/07 10:51:59;;;;;;;0.80;0.80;;;10.20;99.90;;;;;;5004573;28;20174;-77
2022/04/07 10:54:28;;;;;;;0.90;0.80;;;10.20;99.90;;;;;;5054802;28;20200;-77
2022/04/07 10:56:59;;;;;;;1.50;1.33;;;10.20;99.90;;;;;;5021305;28;20177;-76
2022/04/07 10:59:34;;;;;;;1.23;1.00;;;10.20;99.90;;;;;;5021126;28;20271;-77
2022/04/07 11:02:10;;;;;;;0.90;0.80;;;10.20;99.90;;;;;;5037227;28;20176;-77
2022/04/07 11:04:49;;;;;;;0.90;0.80;;;10.30;99.90;;;;;;5020388;28;20199;-76
2022/04/07 11:07:18;;;;;;;1.00;0.70;;;10.30;99.90;;;;;;5036096;28;20182;-76
2022/04/07 11:09:53;;;;;;;2.60;0.80;;;10.40;99.90;;;;;;5004712;28;20605;-76
2022/04/07 11:12:24;;;;;;;0.70;0.70;;;10.40;99.90;;;;;;5035962;28;20179;-77
2022/04/07 11:14:53;;;;;;;1.20;1.10;;;10.50;99.90;;;;;;5020605;28;20181;-76
2022/04/07 11:17:45;;;;;;;1.10;1.00;;;10.40;99.90;;;;;;5020680;28;20178;-75
2022/04/07 11:20:21;;;;;;;2.10;1.00;;;10.40;99.90;;;;;;5039204;28;20694;-76
2022/04/07 11:22:48;;;;;;;0.70;0.70;;;10.50;99.90;;;;;;5018828;28;20657;-77
2022/04/07 11:25:19;;;;;;;0.80;0.80;;;10.50;99.90;;;;;;5053246;28;20174;-76
2022/04/07 11:27:45;;;;;;;1.13;0.80;;;10.40;99.90;;;;;;5035598;28;20197;-76
2022/04/07 11:30:13;;;;;;;0.50;0.50;;;10.40;99.90;;;;;;5019638;28;20220;-76
2022/04/07 11:32:59;;;;;;;0.80;0.80;;;10.40;99.90;;;;;;5019319;28;20256;-75
2022/04/07 11:35:24;;;;;;;1.27;0.90;;;10.40;99.90;;;;;;5021432;28;20224;-75
2022/04/07 11:37:51;;;;;;;1.00;0.80;;;10.40;99.90;;;;;;5019738;28;20656;-75
2022/04/07 11:40:17;;;;;;;0.50;0.50;;;10.50;99.90;;;;;;5019931;28;20573;-75
2022/04/07 11:42:42;;;;;;;0.60;0.60;;;10.40;99.90;;;;;;5018889;28;20184;-74
2022/04/07 11:45:08;;;;;;;0.60;0.60;;;10.40;99.90;;;;;;5038887;28;20177;-76
2022/04/07 11:47:36;;;;;;;1.20;0.70;;;10.40;99.90;;;;;;5022715;28;20242;-76
2022/04/07 11:50:05;;;;;;;0.50;0.50;;;10.40;99.90;;;;;;5038379;28;20204;-76
2022/04/07 11:52:33;;;;;;;0.50;0.50;;;10.30;99.90;;;;;;5006688;28;20671;-76
2022/04/07 11:54:59;;;;;;;1.07;0.60;;;10.30;99.90;;;;;;5038739;28;20689;-75
2022/04/07 11:57:28;;;;;;;0.60;0.60;;;10.30;99.90;;;;;;5038843;28;20173;-75
2022/04/07 11:59:59;;;;;;;0.97;0.90;;;10.50;99.90;;;;;;5038759;28;20227;-75
2022/04/07 12:02:25;;;;;;;1.03;0.70;;;10.50;99.90;;;;;;5039095;28;20158;-77
2022/04/07 12:05:03;;;;;;;0.97;0.80;;;10.60;99.90;;;;;;5023042;28;20191;-75
2022/04/07 12:07:29;;;;;;;1.20;0.80;;;10.60;99.90;;;;;;5038202;28;20176;-76
2022/04/07 12:09:56;;;;;;;1.17;1.00;;;10.60;99.90;;;;;;5037902;28;20244;-77
2022/04/07 12:12:25;;;;;;;1.47;1.27;;;10.70;99.90;;;;;;5038101;28;20288;-77
2022/04/07 12:14:52;;;;;;;2.50;2.03;;;10.60;99.90;;;;;;5022745;28;20701;-76
2022/04/07 12:17:18;;;;;;;2.63;1.47;;;10.60;99.90;;;;;;5038281;28;20181;-75
2022/04/07 12:19:47;;;;;;;4.27;2.70;;;10.50;99.90;;;;;;5038266;28;20200;-75
2022/04/07 12:22:14;;;;;;;3.93;1.60;;;10.40;99.90;;;;;;5055975;28;20260;-75
2022/04/07 12:25:04;;;;;;;2.13;1.67;;;10.40;99.90;;;;;;5021624;28;20189;-75
2022/04/07 12:27:34;;;;;;;3.27;1.50;;;10.40;99.90;;;;;;5037440;28;20181;-77
2022/04/07 12:30:00;;;;;;;1.30;1.20;;;10.40;99.90;;;;;;5004763;28;20221;-76
2022/04/07 12:32:40;;;;;;;1.10;1.00;;;10.30;99.90;;;;;;5004510;28;20630;-78
2022/04/07 12:35:06;;;;;;;1.83;1.10;;;10.20;99.90;;;;;;5055429;28;20222;-74
2022/04/07 12:37:37;;;;;;;1.20;1.10;;;10.30;99.90;;;;;;5020823;28;20193;-74
2022/04/07 12:40:06;;;;;;;1.30;1.20;;;10.30;99.90;;;;;;5004955;28;20213;-75
2022/04/07 12:42:32;;;;;;;2.10;1.90;;;10.40;99.90;;;;;;5037010;28;20183;-75
2022/04/07 12:45:07;;;;;;;2.10;1.47;;;10.40;99.90;;;;;;5037415;28;20239;-74
2022/04/07 12:47:33;;;;;;;3.47;2.30;;;10.40;99.90;;;;;;5020949;28;20586;-76
2022/04/07 12:50:02;;;;;;;1.63;1.40;;;10.40;99.90;;;;;;5036757;28;20205;-76
2022/04/07 12:52:39;;;;;;;1.60;1.40;;;10.40;99.90;;;;;;5004137;28;20177;-75
2022/04/07 12:55:10;;;;;;;1.10;1.00;;;10.40;99.90;;;;;;5004147;28;20273;-77
2022/04/07 12:57:41;;;;;;;0.90;0.90;;;10.40;99.90;;;;;;5036665;28;20257;-77
2022/04/07 13:00:10;;;;;;;1.07;1.00;;;10.30;99.90;;;;;;5021109;28;20217;-76